sensor_id;sensor_type;location;lat;lon;timestamp;temperature;humidity
58519;DHT22;44310;48.106;12.008;2023-02-26T00:01:28;16.10;78.00
58519;DHT22;44310;48.106;12.008;2023-02-26T00:03:58;15.90;77.90
58519;DHT22;44310;48.106;12.008;2023-02-26T00:06:26;15.90;77.60
58519;DHT22;44310;48.106;12.008;2023-02-26T00:08:54;15.90;77.90
58519;DHT22;44310;48.106;12.008;2023-02-26T00:11:21;15.70;77.60
58519;DHT22;44310;48.106;12.008;2023-02-26T00:13:49;15.90;77.90
58519;DHT22;44310;48.106;12.008;2023-02-26T00:16:28;15.90;77.80
58519;DHT22;44310;48.106;12.008;2023-02-26T00:18:58;15.80;77.60
58519;DHT22;44310;48.106;12.008;2023-02-26T00:21:26;15.90;77.70
58519;DHT22;44310;48.106;12.008;2023-02-26T00:23:57;15.90;77.60
58519;DHT22;44310;48.106;12.008;2023-02-26T00:26:25;16.10;77.80
58519;DHT22;44310;48.106;12.008;2023-02-26T00:28:56;15.90;77.40
58519;DHT22;44310;48.106;12.008;2023-02-26T00:31:24;15.80;77.20
58519;DHT22;44310;48.106;12.008;2023-02-26T00:33:52;15.80;76.90
58519;DHT22;44310;48.106;12.008;2023-02-26T00:41:58;15.80;76.50
58519;DHT22;44310;48.106;12.008;2023-02-26T00:44:25;15.90;76.80
58519;DHT22;44310;48.106;12.008;2023-02-26T00:50:22;15.90;77.00
58519;DHT22;44310;48.106;12.008;2023-02-26T00:52:59;16.00;77.20
58519;DHT22;44310;48.106;12.008;2023-02-26T00:55:28;15.90;77.80
58519;DHT22;44310;48.106;12.008;2023-02-26T00:57:55;16.00;78.10
58519;DHT22;44310;48.106;12.008;2023-02-26T01:00:22;15.80;78.40
58519;DHT22;44310;48.106;12.008;2023-02-26T01:02:50;16.00;78.80
58519;DHT22;44310;48.106;12.008;2023-02-26T01:05:17;16.00;79.00
58519;DHT22;44310;48.106;12.008;2023-02-26T01:08:12;16.00;79.10
58519;DHT22;44310;48.106;12.008;2023-02-26T01:10:40;16.10;79.20
58519;DHT22;44310;48.106;12.008;2023-02-26T01:13:07;16.00;78.60
58519;DHT22;44310;48.106;12.008;2023-02-26T01:15:34;16.00;79.40
58519;DHT22;44310;48.106;12.008;2023-02-26T01:18:17;15.90;79.20
58519;DHT22;44310;48.106;12.008;2023-02-26T01:20:59;16.00;79.50
58519;DHT22;44310;48.106;12.008;2023-02-26T01:23:32;15.50;79.40
58519;DHT22;44310;48.106;12.008;2023-02-26T01:26:16;15.90;79.60
58519;DHT22;44310;48.106;12.008;2023-02-26T01:28:46;16.10;79.90
58519;DHT22;44310;48.106;12.008;2023-02-26T01:34:05;15.80;79.70
58519;DHT22;44310;48.106;12.008;2023-02-26T01:36:43;15.60;80.00
58519;DHT22;44310;48.106;12.008;2023-02-26T01:42:13;15.90;79.80
58519;DHT22;44310;48.106;12.008;2023-02-26T01:47:36;16.10;80.80
58519;DHT22;44310;48.106;12.008;2023-02-26T01:50:15;16.00;80.00
58519;DHT22;44310;48.106;12.008;2023-02-26T01:55:20;15.90;80.00
58519;DHT22;44310;48.106;12.008;2023-02-26T01:57:49;15.90;79.90
58519;DHT22;44310;48.106;12.008;2023-02-26T02:00:18;15.80;79.80
58519;DHT22;44310;48.106;12.008;2023-02-26T02:02:45;15.90;79.70
58519;DHT22;44310;48.106;12.008;2023-02-26T02:05:20;15.70;79.70
58519;DHT22;44310;48.106;12.008;2023-02-26T02:07:48;15.70;79.80
58519;DHT22;44310;48.106;12.008;2023-02-26T02:10:16;15.60;79.80
58519;DHT22;44310;48.106;12.008;2023-02-26T02:18:21;15.70;81.00
58519;DHT22;44310;48.106;12.008;2023-02-26T02:20:58;16.00;81.40
58519;DHT22;44310;48.106;12.008;2023-02-26T02:23:44;15.80;80.70
58519;DHT22;44310;48.106;12.008;2023-02-26T02:26:48;15.80;80.80
58519;DHT22;44310;48.106;12.008;2023-02-26T02:29:31;15.80;80.50
58519;DHT22;44310;48.106;12.008;2023-02-26T02:32:09;15.70;80.80
58519;DHT22;44310;48.106;12.008;2023-02-26T02:34:52;15.80;80.30
58519;DHT22;44310;48.106;12.008;2023-02-26T02:37:35;15.80;80.10
58519;DHT22;44310;48.106;12.008;2023-02-26T02:40:14;15.70;79.60
58519;DHT22;44310;48.106;12.008;2023-02-26T02:42:46;15.60;79.40
58519;DHT22;44310;48.106;12.008;2023-02-26T02:48:19;15.60;79.00
58519;DHT22;44310;48.106;12.008;2023-02-26T02:51:07;17.10;80.30
58519;DHT22;44310;48.106;12.008;2023-02-26T02:59:38;16.00;81.10
58519;DHT22;44310;48.106;12.008;2023-02-26T03:05:00;15.70;80.80
58519;DHT22;44310;48.106;12.008;2023-02-26T03:07:30;15.70;80.30
58519;DHT22;44310;48.106;12.008;2023-02-26T03:09:59;15.70;80.00
58519;DHT22;44310;48.106;12.008;2023-02-26T03:12:31;16.90;80.60
58519;DHT22;44310;48.106;12.008;2023-02-26T03:14:59;15.70;79.80
58519;DHT22;44310;48.106;12.008;2023-02-26T03:20:28;15.60;79.70
58519;DHT22;44310;48.106;12.008;2023-02-26T03:25:46;15.60;79.50
58519;DHT22;44310;48.106;12.008;2023-02-26T03:28:28;15.60;80.00
58519;DHT22;44310;48.106;12.008;2023-02-26T03:31:19;15.60;79.20
58519;DHT22;44310;48.106;12.008;2023-02-26T03:36:53;15.60;80.00
58519;DHT22;44310;48.106;12.008;2023-02-26T03:39:28;15.70;80.70
58519;DHT22;44310;48.106;12.008;2023-02-26T03:42:06;15.60;80.30
58519;DHT22;44310;48.106;12.008;2023-02-26T03:44:42;15.70;80.20
58519;DHT22;44310;48.106;12.008;2023-02-26T03:47:13;15.60;80.50
58519;DHT22;44310;48.106;12.008;2023-02-26T03:52:20;15.70;79.70
58519;DHT22;44310;48.106;12.008;2023-02-26T03:54:53;15.50;79.60
58519;DHT22;44310;48.106;12.008;2023-02-26T03:57:22;15.50;79.40
58519;DHT22;44310;48.106;12.008;2023-02-26T03:59:50;15.70;79.10
58519;DHT22;44310;48.106;12.008;2023-02-26T04:02:30;15.60;78.60
58519;DHT22;44310;48.106;12.008;2023-02-26T04:05:17;15.30;78.10
58519;DHT22;44310;48.106;12.008;2023-02-26T04:07:46;15.60;78.10
58519;DHT22;44310;48.106;12.008;2023-02-26T04:10:17;15.50;77.80
58519;DHT22;44310;48.106;12.008;2023-02-26T04:12:45;14.90;77.30
58519;DHT22;44310;48.106;12.008;2023-02-26T04:15:12;15.50;77.50
58519;DHT22;44310;48.106;12.008;2023-02-26T04:17:39;15.50;77.50
58519;DHT22;44310;48.106;12.008;2023-02-26T04:20:07;15.50;77.30
58519;DHT22;44310;48.106;12.008;2023-02-26T04:22:36;15.50;77.70
58519;DHT22;44310;48.106;12.008;2023-02-26T04:25:03;15.60;77.80
58519;DHT22;44310;48.106;12.008;2023-02-26T04:27:31;15.50;77.60
58519;DHT22;44310;48.106;12.008;2023-02-26T04:29:58;15.40;77.30
58519;DHT22;44310;48.106;12.008;2023-02-26T04:32:25;15.40;77.20
58519;DHT22;44310;48.106;12.008;2023-02-26T04:34:52;15.50;77.60
58519;DHT22;44310;48.106;12.008;2023-02-26T04:37:19;15.50;77.90
58519;DHT22;44310;48.106;12.008;2023-02-26T04:39:46;15.50;77.70
58519;DHT22;44310;48.106;12.008;2023-02-26T04:42:13;15.70;78.50
58519;DHT22;44310;48.106;12.008;2023-02-26T04:44:41;15.60;78.50
58519;DHT22;44310;48.106;12.008;2023-02-26T04:47:08;15.60;78.40
58519;DHT22;44310;48.106;12.008;2023-02-26T04:49:35;17.10;79.50
58519;DHT22;44310;48.106;12.008;2023-02-26T04:52:02;16.50;78.90
58519;DHT22;44310;48.106;12.008;2023-02-26T04:54:29;17.00;78.60
58519;DHT22;44310;48.106;12.008;2023-02-26T04:56:56;15.60;77.60
58519;DHT22;44310;48.106;12.008;2023-02-26T04:59:23;15.60;77.60
58519;DHT22;44310;48.106;12.008;2023-02-26T05:01:50;15.50;77.50
58519;DHT22;44310;48.106;12.008;2023-02-26T05:04:18;15.70;77.30
58519;DHT22;44310;48.106;12.008;2023-02-26T05:06:45;15.10;76.70
58519;DHT22;44310;48.106;12.008;2023-02-26T05:09:12;15.50;77.00
58519;DHT22;44310;48.106;12.008;2023-02-26T05:11:39;15.00;76.70
58519;DHT22;44310;48.106;12.008;2023-02-26T05:14:06;15.60;76.90
58519;DHT22;44310;48.106;12.008;2023-02-26T05:16:34;15.50;76.70
58519;DHT22;44310;48.106;12.008;2023-02-26T05:19:01;15.60;76.80
58519;DHT22;44310;48.106;12.008;2023-02-26T05:21:28;15.50;77.00
58519;DHT22;44310;48.106;12.008;2023-02-26T05:23:55;15.40;76.80
58519;DHT22;44310;48.106;12.008;2023-02-26T05:26:23;15.50;76.20
58519;DHT22;44310;48.106;12.008;2023-02-26T05:28:51;15.50;76.10
58519;DHT22;44310;48.106;12.008;2023-02-26T05:31:18;15.30;76.00
58519;DHT22;44310;48.106;12.008;2023-02-26T05:33:45;15.50;76.60
58519;DHT22;44310;48.106;12.008;2023-02-26T05:36:12;15.60;76.90
58519;DHT22;44310;48.106;12.008;2023-02-26T05:38:39;15.60;77.10
58519;DHT22;44310;48.106;12.008;2023-02-26T05:41:07;14.40;76.50
58519;DHT22;44310;48.106;12.008;2023-02-26T05:43:34;14.40;76.20
58519;DHT22;44310;48.106;12.008;2023-02-26T05:46:01;15.50;76.70
58519;DHT22;44310;48.106;12.008;2023-02-26T05:48:29;15.60;76.60
58519;DHT22;44310;48.106;12.008;2023-02-26T05:50:56;16.00;76.60
58519;DHT22;44310;48.106;12.008;2023-02-26T05:53:23;15.40;76.50
58519;DHT22;44310;48.106;12.008;2023-02-26T05:55:52;15.60;76.80
58519;DHT22;44310;48.106;12.008;2023-02-26T05:58:19;15.10;76.60
58519;DHT22;44310;48.106;12.008;2023-02-26T06:00:46;15.60;76.70
58519;DHT22;44310;48.106;12.008;2023-02-26T06:03:14;15.70;76.30
58519;DHT22;44310;48.106;12.008;2023-02-26T06:05:41;15.60;76.10
58519;DHT22;44310;48.106;12.008;2023-02-26T06:08:08;16.70;77.00
58519;DHT22;44310;48.106;12.008;2023-02-26T06:10:38;15.60;76.30
58519;DHT22;44310;48.106;12.008;2023-02-26T06:13:05;15.60;76.00
58519;DHT22;44310;48.106;12.008;2023-02-26T06:15:32;15.60;76.10
58519;DHT22;44310;48.106;12.008;2023-02-26T06:17:59;14.50;75.10
58519;DHT22;44310;48.106;12.008;2023-02-26T06:20:26;15.60;75.60
58519;DHT22;44310;48.106;12.008;2023-02-26T06:22:53;15.50;75.30
58519;DHT22;44310;48.106;12.008;2023-02-26T06:25:21;16.50;75.70
58519;DHT22;44310;48.106;12.008;2023-02-26T06:27:48;15.40;75.20
58519;DHT22;44310;48.106;12.008;2023-02-26T06:30:15;15.30;74.90
58519;DHT22;44310;48.106;12.008;2023-02-26T06:32:44;15.50;74.90
58519;DHT22;44310;48.106;12.008;2023-02-26T06:35:11;15.60;75.10
58519;DHT22;44310;48.106;12.008;2023-02-26T06:37:38;15.50;75.00
58519;DHT22;44310;48.106;12.008;2023-02-26T06:40:06;15.50;74.50
58519;DHT22;44310;48.106;12.008;2023-02-26T06:42:33;15.40;74.20
58519;DHT22;44310;48.106;12.008;2023-02-26T06:45:01;15.90;74.40
58519;DHT22;44310;48.106;12.008;2023-02-26T06:47:28;15.40;74.60
58519;DHT22;44310;48.106;12.008;2023-02-26T06:49:57;15.50;74.70
58519;DHT22;44310;48.106;12.008;2023-02-26T06:52:24;15.80;74.80
58519;DHT22;44310;48.106;12.008;2023-02-26T06:54:51;15.40;74.50
58519;DHT22;44310;48.106;12.008;2023-02-26T06:57:18;16.50;74.90
58519;DHT22;44310;48.106;12.008;2023-02-26T06:59:45;14.40;74.10
58519;DHT22;44310;48.106;12.008;2023-02-26T07:02:16;15.50;75.00
58519;DHT22;44310;48.106;12.008;2023-02-26T07:04:44;15.50;74.70
58519;DHT22;44310;48.106;12.008;2023-02-26T07:07:11;15.50;74.30
58519;DHT22;44310;48.106;12.008;2023-02-26T07:09:39;15.80;74.30
58519;DHT22;44310;48.106;12.008;2023-02-26T07:12:07;15.60;74.00
58519;DHT22;44310;48.106;12.008;2023-02-26T07:14:34;15.30;73.60
58519;DHT22;44310;48.106;12.008;2023-02-26T07:17:01;15.60;73.60
58519;DHT22;44310;48.106;12.008;2023-02-26T07:19:29;15.60;73.40
58519;DHT22;44310;48.106;12.008;2023-02-26T07:21:56;15.40;73.30
58519;DHT22;44310;48.106;12.008;2023-02-26T07:24:23;15.40;73.50
58519;DHT22;44310;48.106;12.008;2023-02-26T07:26:51;16.40;74.10
58519;DHT22;44310;48.106;12.008;2023-02-26T07:29:18;16.30;74.00
58519;DHT22;44310;48.106;12.008;2023-02-26T07:31:45;14.80;73.20
58519;DHT22;44310;48.106;12.008;2023-02-26T07:34:13;15.60;73.80
58519;DHT22;44310;48.106;12.008;2023-02-26T07:36:40;15.60;73.30
58519;DHT22;44310;48.106;12.008;2023-02-26T07:39:07;15.60;73.20
58519;DHT22;44310;48.106;12.008;2023-02-26T07:41:35;14.50;72.50
58519;DHT22;44310;48.106;12.008;2023-02-26T07:44:02;15.60;73.10
58519;DHT22;44310;48.106;12.008;2023-02-26T07:46:29;15.60;73.40
58519;DHT22;44310;48.106;12.008;2023-02-26T07:48:56;15.60;73.30
58519;DHT22;44310;48.106;12.008;2023-02-26T07:51:23;16.10;73.50
58519;DHT22;44310;48.106;12.008;2023-02-26T07:53:51;15.80;73.30
58519;DHT22;44310;48.106;12.008;2023-02-26T07:56:18;15.70;73.20
58519;DHT22;44310;48.106;12.008;2023-02-26T07:58:45;15.60;72.90
58519;DHT22;44310;48.106;12.008;2023-02-26T08:01:12;15.60;72.70
58519;DHT22;44310;48.106;12.008;2023-02-26T08:03:39;15.60;72.70
58519;DHT22;44310;48.106;12.008;2023-02-26T08:06:06;15.80;73.00
58519;DHT22;44310;48.106;12.008;2023-02-26T08:08:34;15.60;72.80
58519;DHT22;44310;48.106;12.008;2023-02-26T08:11:01;15.40;72.30
58519;DHT22;44310;48.106;12.008;2023-02-26T08:13:28;15.60;72.60
58519;DHT22;44310;48.106;12.008;2023-02-26T08:15:55;15.60;72.90
58519;DHT22;44310;48.106;12.008;2023-02-26T08:18:22;15.70;73.00
58519;DHT22;44310;48.106;12.008;2023-02-26T08:20:50;15.60;72.90
58519;DHT22;44310;48.106;12.008;2023-02-26T08:23:18;15.60;72.90
58519;DHT22;44310;48.106;12.008;2023-02-26T08:25:45;15.60;73.00
58519;DHT22;44310;48.106;12.008;2023-02-26T08:28:13;15.50;72.80
58519;DHT22;44310;48.106;12.008;2023-02-26T08:30:40;15.60;72.80
58519;DHT22;44310;48.106;12.008;2023-02-26T08:33:07;16.10;72.80
58519;DHT22;44310;48.106;12.008;2023-02-26T08:35:34;15.20;72.20
58519;DHT22;44310;48.106;12.008;2023-02-26T08:38:01;15.70;72.60
58519;DHT22;44310;48.106;12.008;2023-02-26T08:40:28;15.70;72.70
58519;DHT22;44310;48.106;12.008;2023-02-26T08:42:55;16.20;73.10
58519;DHT22;44310;48.106;12.008;2023-02-26T08:45:25;15.80;72.50
58519;DHT22;44310;48.106;12.008;2023-02-26T08:47:53;15.50;72.50
58519;DHT22;44310;48.106;12.008;2023-02-26T08:50:24;15.60;72.60
58519;DHT22;44310;48.106;12.008;2023-02-26T08:52:51;15.40;72.00
58519;DHT22;44310;48.106;12.008;2023-02-26T08:55:18;15.50;72.10
58519;DHT22;44310;48.106;12.008;2023-02-26T08:57:46;15.30;72.10
58519;DHT22;44310;48.106;12.008;2023-02-26T09:00:13;15.40;72.40
58519;DHT22;44310;48.106;12.008;2023-02-26T09:02:44;15.70;73.70
58519;DHT22;44310;48.106;12.008;2023-02-26T09:05:11;15.60;73.30
58519;DHT22;44310;48.106;12.008;2023-02-26T09:07:41;15.60;73.20
58519;DHT22;44310;48.106;12.008;2023-02-26T09:10:09;15.90;73.70
58519;DHT22;44310;48.106;12.008;2023-02-26T09:12:37;15.60;73.50
58519;DHT22;44310;48.106;12.008;2023-02-26T09:15:05;15.70;73.40
58519;DHT22;44310;48.106;12.008;2023-02-26T09:17:33;15.70;73.70
58519;DHT22;44310;48.106;12.008;2023-02-26T09:20:00;15.80;73.80
58519;DHT22;44310;48.106;12.008;2023-02-26T09:22:28;15.80;73.70
58519;DHT22;44310;48.106;12.008;2023-02-26T09:24:55;15.70;73.80
58519;DHT22;44310;48.106;12.008;2023-02-26T09:27:22;15.70;73.80
58519;DHT22;44310;48.106;12.008;2023-02-26T09:29:49;15.70;74.00
58519;DHT22;44310;48.106;12.008;2023-02-26T09:32:16;15.70;75.10
58519;DHT22;44310;48.106;12.008;2023-02-26T09:34:43;15.60;74.10
58519;DHT22;44310;48.106;12.008;2023-02-26T09:37:10;15.60;74.60
58519;DHT22;44310;48.106;12.008;2023-02-26T09:39:37;15.80;74.90
58519;DHT22;44310;48.106;12.008;2023-02-26T09:45:14;15.70;74.50
58519;DHT22;44310;48.106;12.008;2023-02-26T09:47:50;16.10;74.80
58519;DHT22;44310;48.106;12.008;2023-02-26T09:50:24;16.10;74.90
58519;DHT22;44310;48.106;12.008;2023-02-26T09:53:08;16.20;75.00
58519;DHT22;44310;48.106;12.008;2023-02-26T09:55:39;15.70;74.60
58519;DHT22;44310;48.106;12.008;2023-02-26T10:01:10;15.50;74.50
58519;DHT22;44310;48.106;12.008;2023-02-26T10:07:22;15.70;74.40
58519;DHT22;44310;48.106;12.008;2023-02-26T10:09:56;15.70;74.50
58519;DHT22;44310;48.106;12.008;2023-02-26T10:12:26;15.60;74.40
58519;DHT22;44310;48.106;12.008;2023-02-26T10:28:37;15.60;74.60
58519;DHT22;44310;48.106;12.008;2023-02-26T10:33:47;15.70;74.90
58519;DHT22;44310;48.106;12.008;2023-02-26T10:36:28;15.20;75.00
58519;DHT22;44310;48.106;12.008;2023-02-26T10:39:12;17.00;76.30
58519;DHT22;44310;48.106;12.008;2023-02-26T10:41:41;15.80;75.90
58519;DHT22;44310;48.106;12.008;2023-02-26T10:44:17;15.60;76.00
58519;DHT22;44310;48.106;12.008;2023-02-26T10:47:00;15.70;76.00
58519;DHT22;44310;48.106;12.008;2023-02-26T10:49:50;15.60;75.90
58519;DHT22;44310;48.106;12.008;2023-02-26T10:52:21;15.90;75.90
58519;DHT22;44310;48.106;12.008;2023-02-26T10:55:06;15.60;75.80
58519;DHT22;44310;48.106;12.008;2023-02-26T10:57:42;15.60;75.70
58519;DHT22;44310;48.106;12.008;2023-02-26T11:00:17;16.00;76.00
58519;DHT22;44310;48.106;12.008;2023-02-26T11:02:47;15.60;75.70
58519;DHT22;44310;48.106;12.008;2023-02-26T11:05:21;14.70;74.60
58519;DHT22;44310;48.106;12.008;2023-02-26T11:07:53;15.60;74.40
58519;DHT22;44310;48.106;12.008;2023-02-26T11:10:24;15.70;74.50
58519;DHT22;44310;48.106;12.008;2023-02-26T11:12:51;15.30;74.50
58519;DHT22;44310;48.106;12.008;2023-02-26T11:15:24;15.70;74.70
58519;DHT22;44310;48.106;12.008;2023-02-26T11:17:56;15.60;74.80
58519;DHT22;44310;48.106;12.008;2023-02-26T11:22:59;15.00;74.70
58519;DHT22;44310;48.106;12.008;2023-02-26T11:25:30;15.70;75.20
58519;DHT22;44310;48.106;12.008;2023-02-26T11:28:04;15.70;75.20
58519;DHT22;44310;48.106;12.008;2023-02-26T11:30:36;15.70;75.40
58519;DHT22;44310;48.106;12.008;2023-02-26T11:33:15;15.40;75.30
58519;DHT22;44310;48.106;12.008;2023-02-26T11:35:44;15.70;75.40
58519;DHT22;44310;48.106;12.008;2023-02-26T11:38:18;16.00;75.90
58519;DHT22;44310;48.106;12.008;2023-02-26T11:40:50;15.70;75.90
58519;DHT22;44310;48.106;12.008;2023-02-26T11:43:19;15.50;75.80
58519;DHT22;44310;48.106;12.008;2023-02-26T11:45:52;15.80;76.10
58519;DHT22;44310;48.106;12.008;2023-02-26T11:48:49;15.60;75.90
58519;DHT22;44310;48.106;12.008;2023-02-26T11:51:23;15.60;76.10
58519;DHT22;44310;48.106;12.008;2023-02-26T11:53:54;15.50;76.10
58519;DHT22;44310;48.106;12.008;2023-02-26T11:56:34;15.50;76.10
58519;DHT22;44310;48.106;12.008;2023-02-26T11:59:29;15.60;76.10
58519;DHT22;44310;48.106;12.008;2023-02-26T12:01:54;15.50;75.90
58519;DHT22;44310;48.106;12.008;2023-02-26T12:04:24;15.20;76.40
58519;DHT22;44310;48.106;12.008;2023-02-26T12:06:54;15.40;76.10
58519;DHT22;44310;48.106;12.008;2023-02-26T12:09:24;15.70;76.90
58519;DHT22;44310;48.106;12.008;2023-02-26T12:14:56;15.70;76.70
58519;DHT22;44310;48.106;12.008;2023-02-26T12:20:45;15.60;76.40
58519;DHT22;44310;48.106;12.008;2023-02-26T12:23:36;15.70;76.50
58519;DHT22;44310;48.106;12.008;2023-02-26T12:26:28;15.70;76.50
58519;DHT22;44310;48.106;12.008;2023-02-26T12:39:56;15.70;75.70
58519;DHT22;44310;48.106;12.008;2023-02-26T12:51:18;15.70;75.40
58519;DHT22;44310;48.106;12.008;2023-02-26T12:57:06;15.70;75.50
58519;DHT22;44310;48.106;12.008;2023-02-26T13:05:46;16.10;74.80
58519;DHT22;44310;48.106;12.008;2023-02-26T13:14:00;15.60;71.90
58519;DHT22;44310;48.106;12.008;2023-02-26T13:16:53;15.70;71.60
58519;DHT22;44310;48.106;12.008;2023-02-26T13:22:02;15.60;70.60
58519;DHT22;44310;48.106;12.008;2023-02-26T13:24:37;15.60;70.50
58519;DHT22;44310;48.106;12.008;2023-02-26T13:27:07;15.50;70.40
58519;DHT22;44310;48.106;12.008;2023-02-26T13:29:40;15.70;70.10
58519;DHT22;44310;48.106;12.008;2023-02-26T13:32:16;15.40;70.10
58519;DHT22;44310;48.106;12.008;2023-02-26T13:34:57;15.50;70.00
58519;DHT22;44310;48.106;12.008;2023-02-26T13:37:40;15.60;70.00
58519;DHT22;44310;48.106;12.008;2023-02-26T13:51:56;15.30;68.30
58519;DHT22;44310;48.106;12.008;2023-02-26T13:54:28;15.10;66.40
58519;DHT22;44310;48.106;12.008;2023-02-26T13:57:22;15.00;63.90
58519;DHT22;44310;48.106;12.008;2023-02-26T14:00:40;14.90;64.30
58519;DHT22;44310;48.106;12.008;2023-02-26T14:03:10;14.90;64.30
58519;DHT22;44310;48.106;12.008;2023-02-26T14:13:37;15.20;66.70
58519;DHT22;44310;48.106;12.008;2023-02-26T14:16:19;15.20;66.10
58519;DHT22;44310;48.106;12.008;2023-02-26T14:23:57;14.90;61.60
58519;DHT22;44310;48.106;12.008;2023-02-26T14:26:28;14.60;63.30
58519;DHT22;44310;48.106;12.008;2023-02-26T14:29:12;14.80;64.00
58519;DHT22;44310;48.106;12.008;2023-02-26T14:34:22;14.50;65.20
58519;DHT22;44310;48.106;12.008;2023-02-26T14:36:53;14.50;66.40
58519;DHT22;44310;48.106;12.008;2023-02-26T14:39:42;14.70;67.20
58519;DHT22;44310;48.106;12.008;2023-02-26T14:42:20;14.80;67.40
58519;DHT22;44310;48.106;12.008;2023-02-26T14:45:11;14.80;67.10
58519;DHT22;44310;48.106;12.008;2023-02-26T14:47:40;14.80;67.20
58519;DHT22;44310;48.106;12.008;2023-02-26T14:50:14;14.90;67.80
58519;DHT22;44310;48.106;12.008;2023-02-26T14:55:46;14.90;68.80
58519;DHT22;44310;48.106;12.008;2023-02-26T15:02:11;14.80;71.00
58519;DHT22;44310;48.106;12.008;2023-02-26T15:10:10;14.90;71.50
58519;DHT22;44310;48.106;12.008;2023-02-26T15:18:21;15.00;71.60
58519;DHT22;44310;48.106;12.008;2023-02-26T15:23:35;14.20;70.90
58519;DHT22;44310;48.106;12.008;2023-02-26T15:26:05;14.90;71.90
58519;DHT22;44310;48.106;12.008;2023-02-26T15:28:38;14.90;72.40
58519;DHT22;44310;48.106;12.008;2023-02-26T15:31:08;14.90;72.20
58519;DHT22;44310;48.106;12.008;2023-02-26T15:33:39;14.90;72.20
58519;DHT22;44310;48.106;12.008;2023-02-26T15:36:12;14.90;72.00
58519;DHT22;44310;48.106;12.008;2023-02-26T15:38:42;14.90;72.10
58519;DHT22;44310;48.106;12.008;2023-02-26T15:41:10;14.90;72.00
58519;DHT22;44310;48.106;12.008;2023-02-26T15:43:40;14.90;71.90
58519;DHT22;44310;48.106;12.008;2023-02-26T15:46:10;14.90;71.90
58519;DHT22;44310;48.106;12.008;2023-02-26T15:48:38;14.80;71.70
58519;DHT22;44310;48.106;12.008;2023-02-26T15:51:11;14.90;71.50
58519;DHT22;44310;48.106;12.008;2023-02-26T15:53:47;14.90;71.60
58519;DHT22;44310;48.106;12.008;2023-02-26T15:56:18;14.90;71.50
58519;DHT22;44310;48.106;12.008;2023-02-26T15:59:07;14.60;71.20
58519;DHT22;44310;48.106;12.008;2023-02-26T16:01:39;14.80;71.30
58519;DHT22;44310;48.106;12.008;2023-02-26T16:04:14;14.80;71.20
58519;DHT22;44310;48.106;12.008;2023-02-26T16:06:45;14.80;71.10
58519;DHT22;44310;48.106;12.008;2023-02-26T16:09:17;14.60;71.00
58519;DHT22;44310;48.106;12.008;2023-02-26T16:11:45;14.80;71.00
58519;DHT22;44310;48.106;12.008;2023-02-26T16:14:18;14.20;70.60
58519;DHT22;44310;48.106;12.008;2023-02-26T16:16:49;14.30;70.70
58519;DHT22;44310;48.106;12.008;2023-02-26T16:19:21;14.80;70.80
58519;DHT22;44310;48.106;12.008;2023-02-26T16:21:51;13.90;70.20
58519;DHT22;44310;48.106;12.008;2023-02-26T16:24:20;14.80;70.70
58519;DHT22;44310;48.106;12.008;2023-02-26T16:26:54;14.90;70.50
58519;DHT22;44310;48.106;12.008;2023-02-26T16:29:26;14.80;70.80
58519;DHT22;44310;48.106;12.008;2023-02-26T16:31:56;14.80;70.30
58519;DHT22;44310;48.106;12.008;2023-02-26T16:34:41;14.80;70.40
58519;DHT22;44310;48.106;12.008;2023-02-26T16:48:14;14.80;69.30
58519;DHT22;44310;48.106;12.008;2023-02-26T16:50:42;13.80;69.60
58519;DHT22;44310;48.106;12.008;2023-02-26T16:53:16;15.20;71.10
58519;DHT22;44310;48.106;12.008;2023-02-26T16:55:51;14.80;71.20
58519;DHT22;44310;48.106;12.008;2023-02-26T16:58:19;14.40;71.00
58519;DHT22;44310;48.106;12.008;2023-02-26T17:00:54;14.90;70.30
58519;DHT22;44310;48.106;12.008;2023-02-26T17:03:26;14.80;70.20
58519;DHT22;44310;48.106;12.008;2023-02-26T17:06:02;14.80;70.20
58519;DHT22;44310;48.106;12.008;2023-02-26T17:08:40;14.80;69.70
58519;DHT22;44310;48.106;12.008;2023-02-26T17:11:19;14.90;69.70
58519;DHT22;44310;48.106;12.008;2023-02-26T17:16:30;15.00;69.60
58519;DHT22;44310;48.106;12.008;2023-02-26T17:18:57;15.10;69.70
58519;DHT22;44310;48.106;12.008;2023-02-26T17:21:24;15.10;70.30
58519;DHT22;44310;48.106;12.008;2023-02-26T17:23:52;15.10;70.90
58519;DHT22;44310;48.106;12.008;2023-02-26T17:26:19;15.20;71.40
58519;DHT22;44310;48.106;12.008;2023-02-26T17:28:46;15.60;72.00
58519;DHT22;44310;48.106;12.008;2023-02-26T17:31:14;15.30;72.20
58519;DHT22;44310;48.106;12.008;2023-02-26T17:33:42;15.30;72.20
58519;DHT22;44310;48.106;12.008;2023-02-26T17:36:14;15.70;73.00
58519;DHT22;44310;48.106;12.008;2023-02-26T17:38:41;15.40;73.30
58519;DHT22;44310;48.106;12.008;2023-02-26T17:41:17;15.40;73.20
58519;DHT22;44310;48.106;12.008;2023-02-26T17:43:44;14.20;72.40
58519;DHT22;44310;48.106;12.008;2023-02-26T17:46:12;15.40;73.40
58519;DHT22;44310;48.106;12.008;2023-02-26T17:48:39;15.30;73.20
58519;DHT22;44310;48.106;12.008;2023-02-26T17:51:08;16.20;74.00
58519;DHT22;44310;48.106;12.008;2023-02-26T17:53:35;15.70;73.10
58519;DHT22;44310;48.106;12.008;2023-02-26T17:56:24;15.30;73.00
58519;DHT22;44310;48.106;12.008;2023-02-26T17:58:54;15.30;73.00
58519;DHT22;44310;48.106;12.008;2023-02-26T18:01:21;15.30;73.10
58519;DHT22;44310;48.106;12.008;2023-02-26T18:03:56;15.30;73.20
58519;DHT22;44310;48.106;12.008;2023-02-26T18:06:24;15.30;73.60
58519;DHT22;44310;48.106;12.008;2023-02-26T18:08:52;15.30;74.10
58519;DHT22;44310;48.106;12.008;2023-02-26T18:11:20;15.40;74.30
58519;DHT22;44310;48.106;12.008;2023-02-26T18:13:50;14.90;74.10
58519;DHT22;44310;48.106;12.008;2023-02-26T18:16:27;16.70;74.80
58519;DHT22;44310;48.106;12.008;2023-02-26T18:18:54;15.30;73.70
58519;DHT22;44310;48.106;12.008;2023-02-26T18:21:21;15.30;74.20
58519;DHT22;44310;48.106;12.008;2023-02-26T18:23:48;15.60;74.10
58519;DHT22;44310;48.106;12.008;2023-02-26T18:26:17;15.30;74.00
58519;DHT22;44310;48.106;12.008;2023-02-26T18:28:45;14.60;74.00
58519;DHT22;44310;48.106;12.008;2023-02-26T18:31:12;15.30;74.60
58519;DHT22;44310;48.106;12.008;2023-02-26T18:33:40;15.30;74.60
58519;DHT22;44310;48.106;12.008;2023-02-26T18:36:15;15.30;74.60
58519;DHT22;44310;48.106;12.008;2023-02-26T18:38:44;15.30;74.60
58519;DHT22;44310;48.106;12.008;2023-02-26T18:41:11;15.20;75.50
58519;DHT22;44310;48.106;12.008;2023-02-26T18:43:38;15.40;75.00